Mount Pleasant, SC

7:55 PM EDT on May 27, 2018 (GMT -0400)
Mount Pleasant

Weather History for KLRO - December, 2013

Change the Weather History Date:

Monday, December 2, 2013

  Actual Average (KCHS) Record (KCHS)
Temperature  
Mean Temperature 54 °F -  
Max Temperature 64 °F 64 °F 80 °F (2015)
Min Temperature 44 °F 43 °F 23 °F (1964)
Degree Days  
Heating Degree Days 11    
Growing Degree Days 4 (Base 50)    
Moisture  
Dew Point 51 °F    
Average Humidity 92    
Maximum Humidity 100    
Minimum Humidity 55    
Precipitation  
Precipitation 0.00 in - - ()
Sea Level Pressure  
Sea Level Pressure 29.91 in    
Wind  
Wind Speed 2 mph (NW)    
Max Wind Speed 13 mph    
Max Gust Speed -    
Visibility 6 miles    
Events      
Averages and records for this station are not official NWS values.
T = Trace of Precipitation, MM = Missing Value Source: NWS Daily Summary

Daily Weather History Graph

Daily Weather History Graph

Search for Another Location

Airport or City:

Astronomy

Dec. 02, 2013 Rise Set
Actual Time 7:04 AM EST 5:12 PM EST
Civil Twilight 6:37 AM EST 5:39 PM EST
Nautical Twilight 6:07 AM EST 6:09 PM EST
Astronomical Twilight 5:37 AM EST 6:39 PM EST
Moon 6:30 AM EST (12/2) 5:12 PM EST (12/2)
Length of Visible Light 11h 01m
Length of Day
10h 07m
Waning Crescent, 0% of the Moon is Illuminated
Dec 2
Waning Crescent
Dec 2
New
Dec 9
First Quarter
Dec 17
Full
Dec 25
Last Quarter

Hourly Weather History & Observations

Time (EST) Temp. Dew Point Humidity Pressure Visibility Wind Dir Wind Speed Gust Speed Precip Events Conditions
12:15 AM 53.6 °F 53.6 °F 100% 30.00 in 6.0 mi Calm Calm - N/A   Overcast
12:35 AM 53.6 °F 53.6 °F 100% 30.00 in 7.0 mi Calm Calm - N/A   Overcast
12:55 AM 53.6 °F 53.6 °F 100% 29.99 in 7.0 mi Calm Calm - N/A   Overcast
1:15 AM 53.6 °F 53.6 °F 100% 29.98 in 7.0 mi Calm Calm - N/A   Overcast
1:35 AM 53.6 °F 53.6 °F 100% 29.97 in 7.0 mi Calm Calm - N/A   Overcast
1:55 AM 53.6 °F 53.6 °F 100% 29.96 in 6.0 mi Calm Calm - N/A   Overcast
2:15 AM 53.6 °F 53.6 °F 100% 29.96 in 5.0 mi Calm Calm - N/A   Overcast
2:35 AM 53.6 °F 53.6 °F 100% 29.96 in 6.0 mi Calm Calm - N/A   Overcast
2:55 AM 53.6 °F 53.6 °F 100% 29.96 in 7.0 mi Calm Calm - N/A   Overcast
3:15 AM 53.6 °F 53.6 °F 100% 29.96 in 7.0 mi NW 3.5 mph - N/A   Overcast
3:35 AM 53.6 °F 53.6 °F 100% 29.96 in 6.0 mi Calm Calm - N/A   Overcast
3:55 AM 53.6 °F 53.6 °F 100% 29.95 in 5.0 mi Calm Calm - N/A   Overcast
4:15 AM 55.4 °F 55.4 °F 100% 29.95 in 5.0 mi NW 4.6 mph - N/A   Overcast
4:35 AM 53.6 °F 53.6 °F 100% 29.95 in 3.0 mi NW 6.9 mph - N/A   Overcast
4:55 AM 53.6 °F 53.6 °F 100% 29.96 in 4.0 mi NW 4.6 mph - N/A   Overcast
5:15 AM 53.6 °F 53.6 °F 100% 29.96 in 2.5 mi NW 5.8 mph - N/A   Overcast
5:35 AM 53.6 °F 53.6 °F 100% 29.96 in 1.5 mi NW 9.2 mph - N/A   Overcast
5:55 AM 53.6 °F 53.6 °F 100% 29.95 in 3.0 mi NW 6.9 mph - N/A   Overcast
6:15 AM 53.6 °F 53.6 °F 100% 29.95 in 3.0 mi North 4.6 mph - N/A   Overcast
6:35 AM 53.6 °F 53.6 °F 100% 29.95 in 4.0 mi Calm Calm - N/A   Overcast
6:55 AM 53.6 °F 53.6 °F 100% 29.95 in 5.0 mi Calm Calm - N/A   Overcast
7:15 AM 53.6 °F 53.6 °F 100% 29.94 in 5.0 mi Calm Calm - N/A   Mostly Cloudy
7:35 AM 53.6 °F 53.6 °F 100% 29.93 in 4.0 mi Calm Calm - N/A   Mostly Cloudy
7:55 AM 53.6 °F 53.6 °F 100% 29.93 in 5.0 mi Calm Calm - N/A   Partly Cloudy
8:15 AM 53.6 °F 53.6 °F 100% 29.93 in 4.0 mi Calm Calm - N/A   Clear
8:35 AM 53.6 °F 53.6 °F 100% 29.93 in 4.0 mi Calm Calm - N/A   Clear
8:55 AM 53.6 °F 53.6 °F 100% 29.93 in 5.0 mi Calm Calm - N/A   Clear
9:15 AM 53.6 °F 53.6 °F 100% 29.93 in 5.0 mi Calm Calm - N/A   Clear
9:35 AM 55.4 °F 55.4 °F 100% 29.93 in 4.0 mi Calm Calm - N/A   Clear
9:55 AM 55.4 °F 55.4 °F 100% 29.92 in 4.0 mi Calm Calm - N/A   Clear
10:15 AM 55.4 °F 55.4 °F 100% 29.93 in 5.0 mi Calm Calm - N/A   Clear
10:35 AM 55.4 °F 55.4 °F 100% 29.93 in 5.0 mi NW 5.8 mph - N/A   Clear
10:55 AM 55.4 °F 55.4 °F 100% 29.91 in 5.0 mi WNW 4.6 mph - N/A   Clear
11:15 AM 57.2 °F 57.2 °F 100% 29.91 in 5.0 mi WNW 3.5 mph - N/A   Clear
11:35 AM 57.2 °F 57.2 °F 100% 29.91 in 7.0 mi WNW 4.6 mph - N/A   Partly Cloudy
11:55 AM 59.0 °F 57.2 °F 94% 29.88 in 8.0 mi NNW 8.1 mph - N/A   Partly Cloudy
12:15 PM 60.8 °F 57.2 °F 88% 29.87 in 8.0 mi North 9.2 mph - N/A   Clear
12:35 PM 60.8 °F 55.4 °F 82% 29.86 in 9.0 mi North 10.4 mph - N/A   Clear
12:55 PM 62.6 °F 53.6 °F 72% 29.85 in 9.0 mi NNW 6.9 mph - N/A   Clear
1:15 PM 62.6 °F 53.6 °F 72% 29.85 in 8.0 mi NW 9.2 mph - N/A   Clear
1:35 PM 64.4 °F 51.8 °F 64% 29.85 in 10.0 mi NNW 10.4 mph - N/A   Clear
1:55 PM 64.4 °F 50.0 °F 59% 29.84 in 10.0 mi NNW 9.2 mph - N/A   Clear
2:15 PM 64.4 °F 48.2 °F 56% 29.83 in 9.0 mi NNW 10.4 mph - N/A   Clear
2:35 PM 64.4 °F 48.2 °F 56% 29.83 in 10.0 mi NNW 12.7 mph - N/A   Clear
2:55 PM 64.4 °F 48.2 °F 56% 29.83 in 9.0 mi North 6.9 mph - N/A   Clear
3:15 PM 64.4 °F 48.2 °F 56% 29.84 in 10.0 mi NNW 9.2 mph - N/A   Clear
3:35 PM 62.6 °F 46.4 °F 55% 29.83 in 10.0 mi NW 10.4 mph - N/A   Clear
3:55 PM 62.6 °F 46.4 °F 55% 29.83 in 9.0 mi NNW 9.2 mph - N/A   Clear
4:15 PM 62.6 °F 48.2 °F 59% 29.84 in 10.0 mi NW 9.2 mph - N/A   Clear
4:35 PM 60.8 °F 48.2 °F 63% 29.83 in 10.0 mi NW 3.5 mph - N/A   Clear
4:55 PM 57.2 °F 50.0 °F 77% 29.84 in 9.0 mi Calm Calm - N/A   Clear
5:15 PM 55.4 °F 50.0 °F 82% 29.84 in 9.0 mi Calm Calm - N/A   Clear
5:35 PM 53.6 °F 50.0 °F 88% 29.85 in 10.0 mi Calm Calm - N/A   Clear
5:55 PM 51.8 °F 51.8 °F 100% 29.86 in 10.0 mi Calm Calm - N/A   Clear
6:15 PM 51.8 °F 51.8 °F 100% 29.87 in 10.0 mi Calm Calm - N/A   Partly Cloudy
6:35 PM 50.0 °F 50.0 °F 100% 29.86 in 10.0 mi Calm Calm - N/A   Partly Cloudy
6:55 PM 48.2 °F 48.2 °F 100% 29.86 in 9.0 mi Calm Calm - N/A   Clear
7:15 PM 48.2 °F 48.2 °F 100% 29.87 in 10.0 mi Calm Calm - N/A   Clear
7:35 PM 48.2 °F 48.2 °F 100% 29.88 in 8.0 mi Calm Calm - N/A   Clear
7:55 PM 46.4 °F 46.4 °F 100% 29.88 in 7.0 mi Calm Calm - N/A   Clear
8:15 PM 46.4 °F 46.4 °F 100% 29.88 in 7.0 mi Calm Calm - N/A   Clear
8:35 PM 46.4 °F 46.4 °F 100% 29.89 in 5.0 mi Calm Calm - N/A   Clear
8:55 PM 46.4 °F 46.4 °F 100% 29.89 in 5.0 mi Calm Calm - N/A   Clear
9:15 PM 44.6 °F 44.6 °F 100% 29.90 in 5.0 mi Calm Calm - N/A   Clear
9:35 PM 44.6 °F 44.6 °F 100% 29.90 in 5.0 mi Calm Calm - N/A   Clear
9:55 PM 44.6 °F 44.6 °F 100% 29.89 in 5.0 mi Calm Calm - N/A   Clear
10:15 PM 44.6 °F 44.6 °F 100% 29.90 in 4.0 mi Calm Calm - N/A   Clear
10:35 PM 44.6 °F 44.6 °F 100% 29.90 in 5.0 mi Calm Calm - N/A   Clear
10:55 PM 44.6 °F 44.6 °F 100% 29.90 in 4.0 mi Calm Calm - N/A   Clear
11:15 PM 44.6 °F 44.6 °F 100% 29.89 in 4.0 mi Calm Calm - N/A   Clear
11:35 PM 44.6 °F 44.6 °F 100% 29.90 in 4.0 mi Calm Calm - N/A   Clear
11:55 PM 44.6 °F 44.6 °F 100% 29.90 in 3.0 mi Calm Calm - N/A   Clear